sensor_id;sensor_type;location;lat;lon;timestamp;P1;durP1;ratioP1;P2;durP2;ratioP2
58362;SDS011;54977;51.510;7.522;2022-11-18T00:04:43;2.72;;;1.08;;
58362;SDS011;54977;51.510;7.522;2022-11-18T00:09:45;3.10;;;1.05;;
58362;SDS011;54977;51.510;7.522;2022-11-18T00:14:46;1.40;;;0.60;;
58362;SDS011;54977;51.510;7.522;2022-11-18T00:19:49;5.90;;;0.85;;
58362;SDS011;54977;51.510;7.522;2022-11-18T00:24:51;5.38;;;1.42;;
58362;SDS011;54977;51.510;7.522;2022-11-18T00:29:53;2.70;;;0.95;;
58362;SDS011;54977;51.510;7.522;2022-11-18T00:34:56;4.43;;;1.10;;
58362;SDS011;54977;51.510;7.522;2022-11-18T00:39:58;3.50;;;1.17;;
58362;SDS011;54977;51.510;7.522;2022-11-18T00:45:00;5.80;;;1.38;;
58362;SDS011;54977;51.510;7.522;2022-11-18T00:50:03;2.60;;;1.13;;
58362;SDS011;54977;51.510;7.522;2022-11-18T00:55:06;5.70;;;1.40;;
58362;SDS011;54977;51.510;7.522;2022-11-18T01:00:09;4.15;;;1.10;;
58362;SDS011;54977;51.510;7.522;2022-11-18T01:05:12;4.47;;;1.15;;
58362;SDS011;54977;51.510;7.522;2022-11-18T01:10:14;2.38;;;0.90;;
58362;SDS011;54977;51.510;7.522;2022-11-18T01:15:16;4.00;;;0.88;;
58362;SDS011;54977;51.510;7.522;2022-11-18T01:20:20;3.25;;;0.95;;
58362;SDS011;54977;51.510;7.522;2022-11-18T01:25:21;2.75;;;0.77;;
58362;SDS011;54977;51.510;7.522;2022-11-18T01:30:23;2.42;;;0.60;;
58362;SDS011;54977;51.510;7.522;2022-11-18T01:40:28;2.75;;;1.00;;
58362;SDS011;54977;51.510;7.522;2022-11-18T01:45:31;3.70;;;0.95;;
58362;SDS011;54977;51.510;7.522;2022-11-18T01:50:38;2.20;;;0.85;;
58362;SDS011;54977;51.510;7.522;2022-11-18T01:55:45;3.95;;;0.60;;
58362;SDS011;54977;51.510;7.522;2022-11-18T02:00:48;7.32;;;0.98;;
58362;SDS011;54977;51.510;7.522;2022-11-18T02:05:52;4.18;;;0.90;;
58362;SDS011;54977;51.510;7.522;2022-11-18T02:10:54;2.63;;;0.63;;
58362;SDS011;54977;51.510;7.522;2022-11-18T02:21:09;3.13;;;0.80;;
58362;SDS011;54977;51.510;7.522;2022-11-18T02:31:54;2.72;;;0.88;;
58362;SDS011;54977;51.510;7.522;2022-11-18T02:37:02;5.90;;;0.90;;
58362;SDS011;54977;51.510;7.522;2022-11-18T02:42:08;2.72;;;0.70;;
58362;SDS011;54977;51.510;7.522;2022-11-18T02:47:14;4.30;;;1.00;;
58362;SDS011;54977;51.510;7.522;2022-11-18T02:52:17;1.52;;;0.63;;
58362;SDS011;54977;51.510;7.522;2022-11-18T02:57:21;9.63;;;0.93;;
58362;SDS011;54977;51.510;7.522;2022-11-18T03:02:27;1.60;;;0.60;;
58362;SDS011;54977;51.510;7.522;2022-11-18T03:07:39;4.40;;;0.80;;
58362;SDS011;54977;51.510;7.522;2022-11-18T03:12:45;2.10;;;1.10;;
58362;SDS011;54977;51.510;7.522;2022-11-18T03:17:54;4.00;;;1.15;;
58362;SDS011;54977;51.510;7.522;2022-11-18T03:23:02;3.10;;;0.80;;
58362;SDS011;54977;51.510;7.522;2022-11-18T03:28:08;2.80;;;1.42;;
58362;SDS011;54977;51.510;7.522;2022-11-18T03:33:16;4.97;;;1.23;;
58362;SDS011;54977;51.510;7.522;2022-11-18T03:38:24;3.22;;;0.80;;
58362;SDS011;54977;51.510;7.522;2022-11-18T03:43:30;3.22;;;1.00;;
58362;SDS011;54977;51.510;7.522;2022-11-18T03:48:40;3.03;;;1.13;;
58362;SDS011;54977;51.510;7.522;2022-11-18T03:53:47;3.50;;;1.00;;
58362;SDS011;54977;51.510;7.522;2022-11-18T03:58:55;4.15;;;1.23;;
58362;SDS011;54977;51.510;7.522;2022-11-18T04:04:02;2.53;;;1.20;;
58362;SDS011;54977;51.510;7.522;2022-11-18T04:09:08;3.65;;;1.00;;
58362;SDS011;54977;51.510;7.522;2022-11-18T04:14:14;2.97;;;1.05;;
58362;SDS011;54977;51.510;7.522;2022-11-18T04:19:19;5.38;;;1.30;;
58362;SDS011;54977;51.510;7.522;2022-11-18T04:24:21;5.70;;;1.10;;
58362;SDS011;54977;51.510;7.522;2022-11-18T04:29:23;4.03;;;1.27;;
58362;SDS011;54977;51.510;7.522;2022-11-18T04:34:26;4.25;;;1.23;;
58362;SDS011;54977;51.510;7.522;2022-11-18T04:39:29;3.65;;;1.13;;
58362;SDS011;54977;51.510;7.522;2022-11-18T04:44:31;5.93;;;1.27;;
58362;SDS011;54977;51.510;7.522;2022-11-18T04:49:35;5.28;;;1.50;;
58362;SDS011;54977;51.510;7.522;2022-11-18T04:54:37;7.13;;;1.55;;
58362;SDS011;54977;51.510;7.522;2022-11-18T04:59:39;5.28;;;1.70;;
58362;SDS011;54977;51.510;7.522;2022-11-18T05:09:44;9.55;;;2.40;;
58362;SDS011;54977;51.510;7.522;2022-11-18T05:14:46;8.02;;;1.95;;
58362;SDS011;54977;51.510;7.522;2022-11-18T05:19:49;9.48;;;2.28;;
58362;SDS011;54977;51.510;7.522;2022-11-18T05:24:50;9.15;;;2.17;;
58362;SDS011;54977;51.510;7.522;2022-11-18T05:29:52;4.57;;;1.65;;
58362;SDS011;54977;51.510;7.522;2022-11-18T05:39:57;4.63;;;1.67;;
58362;SDS011;54977;51.510;7.522;2022-11-18T05:50:02;3.70;;;1.80;;
58362;SDS011;54977;51.510;7.522;2022-11-18T05:55:05;7.15;;;2.00;;
58362;SDS011;54977;51.510;7.522;2022-11-18T06:00:08;4.15;;;1.77;;
58362;SDS011;54977;51.510;7.522;2022-11-18T06:05:12;3.28;;;1.30;;
58362;SDS011;54977;51.510;7.522;2022-11-18T06:10:15;2.85;;;1.30;;
58362;SDS011;54977;51.510;7.522;2022-11-18T06:15:20;3.95;;;1.20;;
58362;SDS011;54977;51.510;7.522;2022-11-18T06:20:25;3.22;;;1.17;;
58362;SDS011;54977;51.510;7.522;2022-11-18T06:25:28;5.18;;;1.58;;
58362;SDS011;54977;51.510;7.522;2022-11-18T06:30:30;3.97;;;1.65;;
58362;SDS011;54977;51.510;7.522;2022-11-18T06:35:33;6.32;;;1.67;;
58362;SDS011;54977;51.510;7.522;2022-11-18T06:40:35;3.50;;;1.73;;
58362;SDS011;54977;51.510;7.522;2022-11-18T06:45:37;3.83;;;1.35;;
58362;SDS011;54977;51.510;7.522;2022-11-18T06:51:03;3.42;;;1.70;;
58362;SDS011;54977;51.510;7.522;2022-11-18T06:56:05;4.07;;;1.45;;
58362;SDS011;54977;51.510;7.522;2022-11-18T07:01:09;3.65;;;1.42;;
58362;SDS011;54977;51.510;7.522;2022-11-18T07:06:14;5.85;;;1.50;;
58362;SDS011;54977;51.510;7.522;2022-11-18T07:11:19;3.35;;;1.40;;
58362;SDS011;54977;51.510;7.522;2022-11-18T07:16:23;4.68;;;1.63;;
58362;SDS011;54977;51.510;7.522;2022-11-18T07:21:28;3.67;;;1.70;;
58362;SDS011;54977;51.510;7.522;2022-11-18T07:26:30;4.07;;;1.58;;
58362;SDS011;54977;51.510;7.522;2022-11-18T07:31:32;5.28;;;1.90;;
58362;SDS011;54977;51.510;7.522;2022-11-18T07:36:35;4.47;;;1.77;;
58362;SDS011;54977;51.510;7.522;2022-11-18T07:41:38;5.63;;;1.80;;
58362;SDS011;54977;51.510;7.522;2022-11-18T07:46:40;6.30;;;2.10;;
58362;SDS011;54977;51.510;7.522;2022-11-18T07:51:43;4.72;;;2.17;;
58362;SDS011;54977;51.510;7.522;2022-11-18T07:56:48;5.05;;;2.15;;
58362;SDS011;54977;51.510;7.522;2022-11-18T08:01:49;6.28;;;2.40;;
58362;SDS011;54977;51.510;7.522;2022-11-18T08:06:53;5.80;;;2.30;;
58362;SDS011;54977;51.510;7.522;2022-11-18T08:11:54;7.13;;;2.35;;
58362;SDS011;54977;51.510;7.522;2022-11-18T08:21:59;5.93;;;2.40;;
58362;SDS011;54977;51.510;7.522;2022-11-18T08:27:01;7.35;;;3.08;;
58362;SDS011;54977;51.510;7.522;2022-11-18T08:37:06;6.53;;;3.03;;
58362;SDS011;54977;51.510;7.522;2022-11-18T08:42:08;7.53;;;2.40;;
58362;SDS011;54977;51.510;7.522;2022-11-18T08:47:10;4.10;;;2.40;;
58362;SDS011;54977;51.510;7.522;2022-11-18T09:02:19;6.43;;;2.08;;
58362;SDS011;54977;51.510;7.522;2022-11-18T09:07:23;5.57;;;2.78;;
58362;SDS011;54977;51.510;7.522;2022-11-18T09:12:25;4.93;;;2.40;;
58362;SDS011;54977;51.510;7.522;2022-11-18T09:17:27;4.70;;;2.38;;
58362;SDS011;54977;51.510;7.522;2022-11-18T09:27:32;5.55;;;2.72;;
58362;SDS011;54977;51.510;7.522;2022-11-18T09:32:34;8.32;;;3.25;;
58362;SDS011;54977;51.510;7.522;2022-11-18T09:42:41;6.72;;;2.58;;
58362;SDS011;54977;51.510;7.522;2022-11-18T09:47:55;4.43;;;2.50;;
58362;SDS011;54977;51.510;7.522;2022-11-18T09:53:03;6.90;;;2.95;;
58362;SDS011;54977;51.510;7.522;2022-11-18T09:58:11;8.40;;;3.38;;
58362;SDS011;54977;51.510;7.522;2022-11-18T10:03:25;5.38;;;2.88;;
58362;SDS011;54977;51.510;7.522;2022-11-18T10:08:30;9.88;;;4.32;;
58362;SDS011;54977;51.510;7.522;2022-11-18T10:13:39;7.35;;;3.60;;
58362;SDS011;54977;51.510;7.522;2022-11-18T10:18:56;5.65;;;3.20;;
58362;SDS011;54977;51.510;7.522;2022-11-18T10:24:08;5.50;;;3.75;;
58362;SDS011;54977;51.510;7.522;2022-11-18T10:29:15;5.88;;;3.65;;
58362;SDS011;54977;51.510;7.522;2022-11-18T10:39:20;5.90;;;3.37;;
58362;SDS011;54977;51.510;7.522;2022-11-18T10:44:35;6.30;;;3.80;;
58362;SDS011;54977;51.510;7.522;2022-11-18T10:49:39;9.23;;;3.90;;
58362;SDS011;54977;51.510;7.522;2022-11-18T10:54:42;8.13;;;3.55;;
58362;SDS011;54977;51.510;7.522;2022-11-18T10:59:45;10.07;;;4.07;;
58362;SDS011;54977;51.510;7.522;2022-11-18T11:04:50;9.23;;;4.32;;
58362;SDS011;54977;51.510;7.522;2022-11-18T11:15:23;11.70;;;3.90;;
58362;SDS011;54977;51.510;7.522;2022-11-18T11:20:32;4.72;;;3.13;;
58362;SDS011;54977;51.510;7.522;2022-11-18T11:25:35;7.97;;;4.03;;
58362;SDS011;54977;51.510;7.522;2022-11-18T11:30:43;8.30;;;3.97;;
58362;SDS011;54977;51.510;7.522;2022-11-18T11:36:00;7.03;;;3.45;;
58362;SDS011;54977;51.510;7.522;2022-11-18T11:41:29;6.35;;;2.88;;
58362;SDS011;54977;51.510;7.522;2022-11-18T11:46:36;5.50;;;3.15;;
58362;SDS011;54977;51.510;7.522;2022-11-18T11:52:10;8.38;;;3.00;;
58362;SDS011;54977;51.510;7.522;2022-11-18T11:57:20;4.85;;;2.20;;
58362;SDS011;54977;51.510;7.522;2022-11-18T12:02:46;4.55;;;2.63;;
58362;SDS011;54977;51.510;7.522;2022-11-18T12:08:00;6.30;;;2.50;;
58362;SDS011;54977;51.510;7.522;2022-11-18T12:13:13;9.48;;;2.30;;
58362;SDS011;54977;51.510;7.522;2022-11-18T12:18:34;5.55;;;2.10;;
58362;SDS011;54977;51.510;7.522;2022-11-18T12:23:40;6.85;;;2.25;;
58362;SDS011;54977;51.510;7.522;2022-11-18T12:28:43;4.72;;;2.30;;
58362;SDS011;54977;51.510;7.522;2022-11-18T12:33:46;4.88;;;1.95;;
58362;SDS011;54977;51.510;7.522;2022-11-18T12:38:51;5.65;;;2.08;;
58362;SDS011;54977;51.510;7.522;2022-11-18T12:54:51;6.20;;;1.75;;
58362;SDS011;54977;51.510;7.522;2022-11-18T12:59:54;5.40;;;1.40;;
58362;SDS011;54977;51.510;7.522;2022-11-18T13:05:04;5.05;;;1.40;;
58362;SDS011;54977;51.510;7.522;2022-11-18T13:10:15;5.03;;;1.80;;
58362;SDS011;54977;51.510;7.522;2022-11-18T13:15:23;2.42;;;1.05;;
58362;SDS011;54977;51.510;7.522;2022-11-18T13:20:45;4.18;;;1.67;;
58362;SDS011;54977;51.510;7.522;2022-11-18T13:26:01;3.42;;;1.33;;
58362;SDS011;54977;51.510;7.522;2022-11-18T13:31:09;3.78;;;1.77;;
58362;SDS011;54977;51.510;7.522;2022-11-18T13:36:15;5.85;;;1.27;;
58362;SDS011;54977;51.510;7.522;2022-11-18T13:41:18;2.78;;;1.23;;
58362;SDS011;54977;51.510;7.522;2022-11-18T13:46:24;4.15;;;1.10;;
58362;SDS011;54977;51.510;7.522;2022-11-18T13:51:26;5.22;;;1.30;;
58362;SDS011;54977;51.510;7.522;2022-11-18T13:56:28;4.72;;;1.50;;
58362;SDS011;54977;51.510;7.522;2022-11-18T14:01:33;2.67;;;0.90;;
58362;SDS011;54977;51.510;7.522;2022-11-18T14:06:36;4.40;;;1.20;;
58362;SDS011;54977;51.510;7.522;2022-11-18T14:11:40;4.82;;;0.90;;
58362;SDS011;54977;51.510;7.522;2022-11-18T14:16:44;4.30;;;0.60;;
58362;SDS011;54977;51.510;7.522;2022-11-18T14:21:46;2.95;;;0.80;;
58362;SDS011;54977;51.510;7.522;2022-11-18T14:26:48;7.88;;;1.20;;
58362;SDS011;54977;51.510;7.522;2022-11-18T14:32:10;2.45;;;0.90;;
58362;SDS011;54977;51.510;7.522;2022-11-18T14:37:13;6.55;;;2.25;;
58362;SDS011;54977;51.510;7.522;2022-11-18T14:42:16;2.80;;;1.00;;
58362;SDS011;54977;51.510;7.522;2022-11-18T14:47:21;5.72;;;1.50;;
58362;SDS011;54977;51.510;7.522;2022-11-18T14:52:26;6.15;;;1.55;;
58362;SDS011;54977;51.510;7.522;2022-11-18T14:57:27;3.30;;;1.33;;
58362;SDS011;54977;51.510;7.522;2022-11-18T15:02:31;3.30;;;1.40;;
58362;SDS011;54977;51.510;7.522;2022-11-18T15:07:33;7.40;;;2.05;;
58362;SDS011;54977;51.510;7.522;2022-11-18T15:12:35;10.63;;;1.65;;
58362;SDS011;54977;51.510;7.522;2022-11-18T15:17:39;5.93;;;1.70;;
58362;SDS011;54977;51.510;7.522;2022-11-18T15:22:41;3.45;;;1.30;;
58362;SDS011;54977;51.510;7.522;2022-11-18T15:27:43;4.43;;;2.20;;
58362;SDS011;54977;51.510;7.522;2022-11-18T15:37:48;11.85;;;6.80;;
58362;SDS011;54977;51.510;7.522;2022-11-18T15:47:53;21.58;;;12.23;;
58362;SDS011;54977;51.510;7.522;2022-11-18T15:52:54;20.05;;;10.80;;
58362;SDS011;54977;51.510;7.522;2022-11-18T15:57:59;23.60;;;12.05;;
58362;SDS011;54977;51.510;7.522;2022-11-18T16:03:03;26.20;;;12.57;;
58362;SDS011;54977;51.510;7.522;2022-11-18T16:08:05;27.10;;;13.77;;
58362;SDS011;54977;51.510;7.522;2022-11-18T16:13:07;26.35;;;13.70;;
58362;SDS011;54977;51.510;7.522;2022-11-18T16:18:10;26.02;;;12.63;;
58362;SDS011;54977;51.510;7.522;2022-11-18T16:23:12;26.70;;;13.18;;
58362;SDS011;54977;51.510;7.522;2022-11-18T16:28:14;22.25;;;11.95;;
58362;SDS011;54977;51.510;7.522;2022-11-18T16:33:18;22.25;;;12.32;;
58362;SDS011;54977;51.510;7.522;2022-11-18T16:38:20;24.27;;;12.27;;
58362;SDS011;54977;51.510;7.522;2022-11-18T16:43:22;21.35;;;12.48;;
58362;SDS011;54977;51.510;7.522;2022-11-18T16:48:27;20.50;;;10.95;;
58362;SDS011;54977;51.510;7.522;2022-11-18T16:53:30;15.43;;;7.90;;
58362;SDS011;54977;51.510;7.522;2022-11-18T17:03:35;8.20;;;3.90;;
58362;SDS011;54977;51.510;7.522;2022-11-18T17:08:37;8.32;;;4.60;;
58362;SDS011;54977;51.510;7.522;2022-11-18T17:13:39;8.38;;;3.50;;
58362;SDS011;54977;51.510;7.522;2022-11-18T17:18:42;6.80;;;3.83;;
58362;SDS011;54977;51.510;7.522;2022-11-18T17:23:45;7.25;;;3.83;;
58362;SDS011;54977;51.510;7.522;2022-11-18T17:28:48;6.82;;;3.75;;
58362;SDS011;54977;51.510;7.522;2022-11-18T17:33:52;8.40;;;4.28;;
58362;SDS011;54977;51.510;7.522;2022-11-18T17:38:55;6.63;;;2.83;;
58362;SDS011;54977;51.510;7.522;2022-11-18T17:44:00;6.55;;;3.80;;
58362;SDS011;54977;51.510;7.522;2022-11-18T17:49:05;5.93;;;3.35;;
58362;SDS011;54977;51.510;7.522;2022-11-18T17:54:09;5.80;;;3.10;;
58362;SDS011;54977;51.510;7.522;2022-11-18T18:04:17;7.10;;;3.50;;
58362;SDS011;54977;51.510;7.522;2022-11-18T18:09:22;4.55;;;2.70;;
58362;SDS011;54977;51.510;7.522;2022-11-18T18:14:24;8.20;;;3.58;;
58362;SDS011;54977;51.510;7.522;2022-11-18T18:19:30;5.00;;;2.75;;
58362;SDS011;54977;51.510;7.522;2022-11-18T18:24:34;3.95;;;2.40;;
58362;SDS011;54977;51.510;7.522;2022-11-18T18:29:36;5.10;;;2.50;;
58362;SDS011;54977;51.510;7.522;2022-11-18T18:39:40;4.53;;;2.85;;
58362;SDS011;54977;51.510;7.522;2022-11-18T18:44:42;5.95;;;3.50;;
58362;SDS011;54977;51.510;7.522;2022-11-18T18:50:15;7.32;;;3.45;;
58362;SDS011;54977;51.510;7.522;2022-11-18T18:55:17;6.75;;;3.78;;
58362;SDS011;54977;51.510;7.522;2022-11-18T19:00:19;8.43;;;3.75;;
58362;SDS011;54977;51.510;7.522;2022-11-18T19:10:24;7.22;;;3.63;;
58362;SDS011;54977;51.510;7.522;2022-11-18T19:15:26;8.55;;;3.78;;
58362;SDS011;54977;51.510;7.522;2022-11-18T19:20:29;12.90;;;6.30;;
58362;SDS011;54977;51.510;7.522;2022-11-18T19:25:35;6.30;;;3.80;;
58362;SDS011;54977;51.510;7.522;2022-11-18T19:35:40;5.15;;;2.25;;
58362;SDS011;54977;51.510;7.522;2022-11-18T19:40:42;8.00;;;3.75;;
58362;SDS011;54977;51.510;7.522;2022-11-18T19:50:51;7.10;;;3.58;;
58362;SDS011;54977;51.510;7.522;2022-11-18T19:56:04;7.45;;;4.25;;
58362;SDS011;54977;51.510;7.522;2022-11-18T20:01:08;5.53;;;2.83;;
58362;SDS011;54977;51.510;7.522;2022-11-18T20:06:13;5.63;;;2.72;;
58362;SDS011;54977;51.510;7.522;2022-11-18T20:11:16;5.68;;;3.17;;
58362;SDS011;54977;51.510;7.522;2022-11-18T20:16:20;3.97;;;2.28;;
58362;SDS011;54977;51.510;7.522;2022-11-18T20:21:25;11.98;;;4.93;;
58362;SDS011;54977;51.510;7.522;2022-11-18T20:26:29;6.95;;;3.30;;
58362;SDS011;54977;51.510;7.522;2022-11-18T20:31:33;7.05;;;3.15;;
58362;SDS011;54977;51.510;7.522;2022-11-18T20:36:38;4.47;;;2.40;;
58362;SDS011;54977;51.510;7.522;2022-11-18T20:41:40;5.00;;;2.85;;
58362;SDS011;54977;51.510;7.522;2022-11-18T20:46:42;5.63;;;2.50;;
58362;SDS011;54977;51.510;7.522;2022-11-18T20:51:45;3.65;;;2.25;;
58362;SDS011;54977;51.510;7.522;2022-11-18T20:56:47;3.90;;;2.28;;
58362;SDS011;54977;51.510;7.522;2022-11-18T21:01:49;4.35;;;2.50;;
58362;SDS011;54977;51.510;7.522;2022-11-18T21:06:52;2.92;;;1.70;;
58362;SDS011;54977;51.510;7.522;2022-11-18T21:11:59;3.13;;;1.90;;
58362;SDS011;54977;51.510;7.522;2022-11-18T21:17:02;3.22;;;1.88;;
58362;SDS011;54977;51.510;7.522;2022-11-18T21:22:05;3.88;;;2.00;;
58362;SDS011;54977;51.510;7.522;2022-11-18T21:27:07;3.92;;;1.70;;
58362;SDS011;54977;51.510;7.522;2022-11-18T21:32:09;3.35;;;1.77;;
58362;SDS011;54977;51.510;7.522;2022-11-18T21:37:12;1.95;;;1.17;;
58362;SDS011;54977;51.510;7.522;2022-11-18T21:42:14;3.00;;;1.48;;
58362;SDS011;54977;51.510;7.522;2022-11-18T21:47:15;3.13;;;1.45;;
58362;SDS011;54977;51.510;7.522;2022-11-18T21:52:19;3.78;;;1.42;;
58362;SDS011;54977;51.510;7.522;2022-11-18T21:57:20;2.55;;;1.25;;
58362;SDS011;54977;51.510;7.522;2022-11-18T22:02:22;1.95;;;0.60;;
58362;SDS011;54977;51.510;7.522;2022-11-18T22:07:25;3.10;;;1.35;;
58362;SDS011;54977;51.510;7.522;2022-11-18T22:12:27;3.30;;;1.42;;
58362;SDS011;54977;51.510;7.522;2022-11-18T22:17:29;2.17;;;1.02;;
58362;SDS011;54977;51.510;7.522;2022-11-18T22:22:32;2.67;;;1.27;;
58362;SDS011;54977;51.510;7.522;2022-11-18T22:27:34;2.42;;;1.05;;
58362;SDS011;54977;51.510;7.522;2022-11-18T22:32:36;2.58;;;1.45;;
58362;SDS011;54977;51.510;7.522;2022-11-18T22:37:39;3.53;;;1.50;;
58362;SDS011;54977;51.510;7.522;2022-11-18T22:42:41;2.58;;;1.20;;
58362;SDS011;54977;51.510;7.522;2022-11-18T22:47:49;1.38;;;0.70;;
58362;SDS011;54977;51.510;7.522;2022-11-18T22:52:52;3.05;;;1.30;;
58362;SDS011;54977;51.510;7.522;2022-11-18T22:57:54;1.65;;;1.08;;
58362;SDS011;54977;51.510;7.522;2022-11-18T23:02:56;3.28;;;1.42;;
58362;SDS011;54977;51.510;7.522;2022-11-18T23:07:59;2.60;;;1.50;;
58362;SDS011;54977;51.510;7.522;2022-11-18T23:13:01;3.22;;;1.60;;
58362;SDS011;54977;51.510;7.522;2022-11-18T23:18:20;3.42;;;1.92;;
58362;SDS011;54977;51.510;7.522;2022-11-18T23:23:23;3.25;;;1.95;;
58362;SDS011;54977;51.510;7.522;2022-11-18T23:28:25;4.50;;;1.98;;
58362;SDS011;54977;51.510;7.522;2022-11-18T23:33:28;2.97;;;1.08;;
58362;SDS011;54977;51.510;7.522;2022-11-18T23:38:32;2.50;;;0.93;;
58362;SDS011;54977;51.510;7.522;2022-11-18T23:43:34;13.13;;;4.53;;
58362;SDS011;54977;51.510;7.522;2022-11-18T23:58:44;4.65;;;2.15;;
